sensor_id;sensor_type;location;lat;lon;timestamp;P1;durP1;ratioP1;P2;durP2;ratioP2
13234;SDS011;6683;48.506;9.050;2023-11-18T00:01:08;1.60;;;1.30;;
13234;SDS011;6683;48.506;9.050;2023-11-18T00:04:11;1.67;;;1.40;;
13234;SDS011;6683;48.506;9.050;2023-11-18T00:07:17;1.63;;;1.30;;
13234;SDS011;6683;48.506;9.050;2023-11-18T00:10:19;1.47;;;1.37;;
13234;SDS011;6683;48.506;9.050;2023-11-18T00:13:21;1.90;;;1.47;;
13234;SDS011;6683;48.506;9.050;2023-11-18T00:16:26;1.37;;;1.27;;
13234;SDS011;6683;48.506;9.050;2023-11-18T00:19:29;1.70;;;1.50;;
13234;SDS011;6683;48.506;9.050;2023-11-18T00:22:33;1.40;;;1.30;;
13234;SDS011;6683;48.506;9.050;2023-11-18T00:25:35;2.47;;;1.40;;
13234;SDS011;6683;48.506;9.050;2023-11-18T00:28:39;1.67;;;1.40;;
13234;SDS011;6683;48.506;9.050;2023-11-18T00:31:42;1.57;;;1.47;;
13234;SDS011;6683;48.506;9.050;2023-11-18T00:34:44;1.50;;;1.40;;
13234;SDS011;6683;48.506;9.050;2023-11-18T00:37:47;1.77;;;1.20;;
13234;SDS011;6683;48.506;9.050;2023-11-18T00:40:49;1.37;;;1.27;;
13234;SDS011;6683;48.506;9.050;2023-11-18T00:43:52;1.23;;;1.13;;
13234;SDS011;6683;48.506;9.050;2023-11-18T00:46:54;2.40;;;1.30;;
13234;SDS011;6683;48.506;9.050;2023-11-18T00:49:57;1.40;;;1.00;;
13234;SDS011;6683;48.506;9.050;2023-11-18T00:53:03;1.50;;;1.20;;
13234;SDS011;6683;48.506;9.050;2023-11-18T00:56:05;1.00;;;1.00;;
13234;SDS011;6683;48.506;9.050;2023-11-18T00:59:10;1.57;;;1.37;;
13234;SDS011;6683;48.506;9.050;2023-11-18T01:02:12;1.30;;;1.10;;
13234;SDS011;6683;48.506;9.050;2023-11-18T01:05:14;1.23;;;1.13;;
13234;SDS011;6683;48.506;9.050;2023-11-18T01:08:18;1.43;;;1.23;;
13234;SDS011;6683;48.506;9.050;2023-11-18T01:11:21;1.40;;;1.30;;
13234;SDS011;6683;48.506;9.050;2023-11-18T01:14:24;1.60;;;1.20;;
13234;SDS011;6683;48.506;9.050;2023-11-18T01:17:26;2.30;;;1.40;;
13234;SDS011;6683;48.506;9.050;2023-11-18T01:20:29;2.27;;;1.40;;
13234;SDS011;6683;48.506;9.050;2023-11-18T01:23:33;1.50;;;1.30;;
13234;SDS011;6683;48.506;9.050;2023-11-18T01:26:35;1.50;;;1.40;;
13234;SDS011;6683;48.506;9.050;2023-11-18T01:29:37;1.80;;;1.50;;
13234;SDS011;6683;48.506;9.050;2023-11-18T01:32:39;2.03;;;1.40;;
13234;SDS011;6683;48.506;9.050;2023-11-18T01:35:44;1.43;;;1.33;;
13234;SDS011;6683;48.506;9.050;2023-11-18T01:38:47;1.50;;;1.40;;
13234;SDS011;6683;48.506;9.050;2023-11-18T01:41:49;1.50;;;1.40;;
13234;SDS011;6683;48.506;9.050;2023-11-18T01:44:52;1.20;;;1.10;;
13234;SDS011;6683;48.506;9.050;2023-11-18T01:47:55;1.47;;;1.37;;
13234;SDS011;6683;48.506;9.050;2023-11-18T01:50:57;1.23;;;1.13;;
13234;SDS011;6683;48.506;9.050;2023-11-18T01:54:00;1.30;;;1.20;;
13234;SDS011;6683;48.506;9.050;2023-11-18T01:57:05;1.33;;;1.23;;
13234;SDS011;6683;48.506;9.050;2023-11-18T02:00:09;1.50;;;1.13;;
13234;SDS011;6683;48.506;9.050;2023-11-18T02:03:13;1.83;;;1.30;;
13234;SDS011;6683;48.506;9.050;2023-11-18T02:06:15;1.50;;;1.30;;
13234;SDS011;6683;48.506;9.050;2023-11-18T02:09:20;1.83;;;1.40;;
13234;SDS011;6683;48.506;9.050;2023-11-18T02:12:29;1.73;;;1.27;;
13234;SDS011;6683;48.506;9.050;2023-11-18T02:15:42;1.37;;;1.27;;
13234;SDS011;6683;48.506;9.050;2023-11-18T02:18:45;1.40;;;1.30;;
13234;SDS011;6683;48.506;9.050;2023-11-18T02:21:49;2.17;;;1.23;;
13234;SDS011;6683;48.506;9.050;2023-11-18T02:24:55;1.93;;;1.33;;
13234;SDS011;6683;48.506;9.050;2023-11-18T02:27:59;4.97;;;1.13;;
13234;SDS011;6683;48.506;9.050;2023-11-18T02:31:03;1.10;;;1.00;;
13234;SDS011;6683;48.506;9.050;2023-11-18T02:34:27;3.80;;;1.17;;
13234;SDS011;6683;48.506;9.050;2023-11-18T02:37:34;1.17;;;1.07;;
13234;SDS011;6683;48.506;9.050;2023-11-18T02:40:39;1.03;;;0.87;;
13234;SDS011;6683;48.506;9.050;2023-11-18T02:43:45;1.30;;;1.07;;
13234;SDS011;6683;48.506;9.050;2023-11-18T02:46:48;1.23;;;1.13;;
13234;SDS011;6683;48.506;9.050;2023-11-18T02:49:53;0.93;;;0.83;;
13234;SDS011;6683;48.506;9.050;2023-11-18T02:52:56;1.23;;;1.00;;
13234;SDS011;6683;48.506;9.050;2023-11-18T02:55:58;1.00;;;0.90;;
13234;SDS011;6683;48.506;9.050;2023-11-18T02:59:04;0.77;;;0.77;;
13234;SDS011;6683;48.506;9.050;2023-11-18T03:02:06;0.80;;;0.80;;
13234;SDS011;6683;48.506;9.050;2023-11-18T03:05:08;1.63;;;0.90;;
13234;SDS011;6683;48.506;9.050;2023-11-18T03:08:11;0.80;;;0.77;;
13234;SDS011;6683;48.506;9.050;2023-11-18T03:11:14;1.60;;;0.80;;
13234;SDS011;6683;48.506;9.050;2023-11-18T03:14:18;1.00;;;0.77;;
13234;SDS011;6683;48.506;9.050;2023-11-18T03:17:21;1.20;;;1.00;;
13234;SDS011;6683;48.506;9.050;2023-11-18T03:20:23;1.30;;;0.80;;
13234;SDS011;6683;48.506;9.050;2023-11-18T03:23:26;0.90;;;0.90;;
13234;SDS011;6683;48.506;9.050;2023-11-18T03:26:28;1.40;;;0.97;;
13234;SDS011;6683;48.506;9.050;2023-11-18T03:29:33;1.10;;;0.70;;
13234;SDS011;6683;48.506;9.050;2023-11-18T03:32:36;1.00;;;0.90;;
13234;SDS011;6683;48.506;9.050;2023-11-18T03:35:40;2.07;;;0.80;;
13234;SDS011;6683;48.506;9.050;2023-11-18T03:38:42;0.77;;;0.77;;
13234;SDS011;6683;48.506;9.050;2023-11-18T03:41:45;1.00;;;0.90;;
13234;SDS011;6683;48.506;9.050;2023-11-18T03:44:48;0.80;;;0.80;;
13234;SDS011;6683;48.506;9.050;2023-11-18T03:47:50;1.30;;;0.90;;
13234;SDS011;6683;48.506;9.050;2023-11-18T03:50:53;0.80;;;0.80;;
13234;SDS011;6683;48.506;9.050;2023-11-18T03:53:55;1.13;;;0.90;;
13234;SDS011;6683;48.506;9.050;2023-11-18T03:56:57;1.10;;;1.00;;
13234;SDS011;6683;48.506;9.050;2023-11-18T04:00:01;0.93;;;0.83;;
13234;SDS011;6683;48.506;9.050;2023-11-18T04:03:04;0.80;;;0.80;;
13234;SDS011;6683;48.506;9.050;2023-11-18T04:06:07;1.80;;;0.83;;
13234;SDS011;6683;48.506;9.050;2023-11-18T04:09:10;1.00;;;0.90;;
13234;SDS011;6683;48.506;9.050;2023-11-18T04:12:13;2.43;;;1.00;;
13234;SDS011;6683;48.506;9.050;2023-11-18T04:15:17;1.20;;;0.90;;
13234;SDS011;6683;48.506;9.050;2023-11-18T04:18:19;1.10;;;1.00;;
13234;SDS011;6683;48.506;9.050;2023-11-18T04:21:23;3.47;;;1.37;;
13234;SDS011;6683;48.506;9.050;2023-11-18T04:24:25;2.03;;;1.30;;
13234;SDS011;6683;48.506;9.050;2023-11-18T04:27:27;2.60;;;1.50;;
13234;SDS011;6683;48.506;9.050;2023-11-18T04:30:31;1.20;;;1.00;;
13234;SDS011;6683;48.506;9.050;2023-11-18T04:33:34;2.70;;;1.10;;
13234;SDS011;6683;48.506;9.050;2023-11-18T04:36:36;1.07;;;0.97;;
13234;SDS011;6683;48.506;9.050;2023-11-18T04:39:38;2.10;;;0.97;;
13234;SDS011;6683;48.506;9.050;2023-11-18T04:42:41;0.90;;;0.80;;
13234;SDS011;6683;48.506;9.050;2023-11-18T04:45:45;1.10;;;1.00;;
13234;SDS011;6683;48.506;9.050;2023-11-18T04:48:47;2.37;;;1.10;;
13234;SDS011;6683;48.506;9.050;2023-11-18T04:51:49;1.40;;;1.30;;
13234;SDS011;6683;48.506;9.050;2023-11-18T04:54:52;1.20;;;1.03;;
13234;SDS011;6683;48.506;9.050;2023-11-18T04:57:54;3.10;;;2.17;;
13234;SDS011;6683;48.506;9.050;2023-11-18T05:00:58;1.53;;;1.37;;
13234;SDS011;6683;48.506;9.050;2023-11-18T05:04:00;1.67;;;1.57;;
13234;SDS011;6683;48.506;9.050;2023-11-18T05:07:03;1.50;;;1.33;;
13234;SDS011;6683;48.506;9.050;2023-11-18T05:10:06;1.57;;;1.20;;
13234;SDS011;6683;48.506;9.050;2023-11-18T05:13:10;1.47;;;1.20;;
13234;SDS011;6683;48.506;9.050;2023-11-18T05:16:17;1.37;;;1.27;;
13234;SDS011;6683;48.506;9.050;2023-11-18T05:19:19;1.40;;;1.30;;
13234;SDS011;6683;48.506;9.050;2023-11-18T05:22:21;1.53;;;1.30;;
13234;SDS011;6683;48.506;9.050;2023-11-18T05:25:23;1.67;;;1.43;;
13234;SDS011;6683;48.506;9.050;2023-11-18T05:28:25;1.30;;;1.20;;
13234;SDS011;6683;48.506;9.050;2023-11-18T05:31:32;1.20;;;1.10;;
13234;SDS011;6683;48.506;9.050;2023-11-18T05:34:34;0.80;;;0.80;;
13234;SDS011;6683;48.506;9.050;2023-11-18T05:37:37;1.00;;;0.90;;
13234;SDS011;6683;48.506;9.050;2023-11-18T05:40:41;0.87;;;0.87;;
13234;SDS011;6683;48.506;9.050;2023-11-18T05:43:49;0.80;;;0.80;;
13234;SDS011;6683;48.506;9.050;2023-11-18T05:46:53;0.97;;;0.87;;
13234;SDS011;6683;48.506;9.050;2023-11-18T05:49:56;1.03;;;0.90;;
13234;SDS011;6683;48.506;9.050;2023-11-18T05:52:58;1.10;;;0.90;;
13234;SDS011;6683;48.506;9.050;2023-11-18T05:56:01;0.80;;;0.80;;
13234;SDS011;6683;48.506;9.050;2023-11-18T05:59:04;1.60;;;0.80;;
13234;SDS011;6683;48.506;9.050;2023-11-18T06:02:09;0.70;;;0.70;;
13234;SDS011;6683;48.506;9.050;2023-11-18T06:05:13;1.10;;;1.03;;
13234;SDS011;6683;48.506;9.050;2023-11-18T06:08:15;1.03;;;0.73;;
13234;SDS011;6683;48.506;9.050;2023-11-18T06:11:17;0.70;;;0.70;;
13234;SDS011;6683;48.506;9.050;2023-11-18T06:14:20;1.10;;;0.87;;
13234;SDS011;6683;48.506;9.050;2023-11-18T06:17:24;1.70;;;0.93;;
13234;SDS011;6683;48.506;9.050;2023-11-18T06:20:28;1.33;;;1.00;;
13234;SDS011;6683;48.506;9.050;2023-11-18T06:23:30;0.83;;;0.83;;
13234;SDS011;6683;48.506;9.050;2023-11-18T06:26:32;1.00;;;0.90;;
13234;SDS011;6683;48.506;9.050;2023-11-18T06:29:36;0.60;;;0.60;;
13234;SDS011;6683;48.506;9.050;2023-11-18T06:32:40;1.00;;;0.90;;
13234;SDS011;6683;48.506;9.050;2023-11-18T06:35:43;2.57;;;1.40;;
13234;SDS011;6683;48.506;9.050;2023-11-18T06:38:45;1.30;;;1.20;;
13234;SDS011;6683;48.506;9.050;2023-11-18T06:41:49;0.90;;;0.83;;
13234;SDS011;6683;48.506;9.050;2023-11-18T06:44:53;1.60;;;0.80;;
13234;SDS011;6683;48.506;9.050;2023-11-18T06:47:57;1.17;;;0.97;;
13234;SDS011;6683;48.506;9.050;2023-11-18T06:50:59;1.17;;;0.70;;
13234;SDS011;6683;48.506;9.050;2023-11-18T06:54:02;0.80;;;0.80;;
13234;SDS011;6683;48.506;9.050;2023-11-18T06:57:08;1.13;;;1.00;;
13234;SDS011;6683;48.506;9.050;2023-11-18T07:00:11;0.90;;;0.80;;
13234;SDS011;6683;48.506;9.050;2023-11-18T07:03:16;2.53;;;1.20;;
13234;SDS011;6683;48.506;9.050;2023-11-18T07:06:18;1.50;;;1.20;;
13234;SDS011;6683;48.506;9.050;2023-11-18T07:09:22;1.40;;;1.30;;
13234;SDS011;6683;48.506;9.050;2023-11-18T07:12:26;1.30;;;1.20;;
13234;SDS011;6683;48.506;9.050;2023-11-18T07:15:29;1.50;;;1.30;;
13234;SDS011;6683;48.506;9.050;2023-11-18T07:18:32;1.23;;;1.17;;
13234;SDS011;6683;48.506;9.050;2023-11-18T07:21:34;1.03;;;1.00;;
13234;SDS011;6683;48.506;9.050;2023-11-18T07:24:37;1.40;;;1.30;;
13234;SDS011;6683;48.506;9.050;2023-11-18T07:27:39;1.33;;;1.23;;
13234;SDS011;6683;48.506;9.050;2023-11-18T07:30:42;1.30;;;1.10;;
13234;SDS011;6683;48.506;9.050;2023-11-18T07:33:48;1.17;;;1.07;;
13234;SDS011;6683;48.506;9.050;2023-11-18T07:36:51;1.63;;;1.20;;
13234;SDS011;6683;48.506;9.050;2023-11-18T07:39:55;1.10;;;1.00;;
13234;SDS011;6683;48.506;9.050;2023-11-18T07:43:00;2.30;;;1.40;;
13234;SDS011;6683;48.506;9.050;2023-11-18T07:46:03;1.40;;;1.30;;
13234;SDS011;6683;48.506;9.050;2023-11-18T07:49:09;1.63;;;1.53;;
13234;SDS011;6683;48.506;9.050;2023-11-18T07:52:11;1.80;;;1.70;;
13234;SDS011;6683;48.506;9.050;2023-11-18T07:55:14;1.30;;;1.17;;
13234;SDS011;6683;48.506;9.050;2023-11-18T07:58:16;1.47;;;1.37;;
13234;SDS011;6683;48.506;9.050;2023-11-18T08:01:18;1.67;;;1.57;;
13234;SDS011;6683;48.506;9.050;2023-11-18T08:04:23;1.87;;;1.60;;
13234;SDS011;6683;48.506;9.050;2023-11-18T08:07:26;2.07;;;1.70;;
13234;SDS011;6683;48.506;9.050;2023-11-18T08:10:28;1.50;;;1.40;;
13234;SDS011;6683;48.506;9.050;2023-11-18T08:13:32;1.83;;;1.40;;
13234;SDS011;6683;48.506;9.050;2023-11-18T08:16:35;1.40;;;1.30;;
13234;SDS011;6683;48.506;9.050;2023-11-18T08:19:39;1.70;;;1.60;;
13234;SDS011;6683;48.506;9.050;2023-11-18T08:22:41;2.03;;;1.60;;
13234;SDS011;6683;48.506;9.050;2023-11-18T08:25:44;1.60;;;1.50;;
13234;SDS011;6683;48.506;9.050;2023-11-18T08:28:46;1.70;;;1.60;;
13234;SDS011;6683;48.506;9.050;2023-11-18T08:31:49;1.73;;;1.63;;
13234;SDS011;6683;48.506;9.050;2023-11-18T08:34:53;3.03;;;2.03;;
13234;SDS011;6683;48.506;9.050;2023-11-18T08:37:55;2.03;;;1.83;;
13234;SDS011;6683;48.506;9.050;2023-11-18T08:40:59;3.37;;;2.20;;
13234;SDS011;6683;48.506;9.050;2023-11-18T08:44:01;2.50;;;2.30;;
13234;SDS011;6683;48.506;9.050;2023-11-18T08:47:04;2.07;;;1.97;;
13234;SDS011;6683;48.506;9.050;2023-11-18T08:50:10;2.40;;;2.10;;
13234;SDS011;6683;48.506;9.050;2023-11-18T08:53:12;5.40;;;4.87;;
13234;SDS011;6683;48.506;9.050;2023-11-18T08:56:18;3.33;;;3.03;;
13234;SDS011;6683;48.506;9.050;2023-11-18T08:59:20;2.67;;;2.47;;
13234;SDS011;6683;48.506;9.050;2023-11-18T09:02:24;2.40;;;2.20;;
13234;SDS011;6683;48.506;9.050;2023-11-18T09:05:32;3.17;;;2.70;;
13234;SDS011;6683;48.506;9.050;2023-11-18T09:08:36;1.90;;;1.80;;
13234;SDS011;6683;48.506;9.050;2023-11-18T09:11:42;3.60;;;1.90;;
13234;SDS011;6683;48.506;9.050;2023-11-18T09:14:44;2.10;;;2.00;;
13234;SDS011;6683;48.506;9.050;2023-11-18T09:17:47;2.57;;;2.37;;
13234;SDS011;6683;48.506;9.050;2023-11-18T09:20:51;2.20;;;2.00;;
13234;SDS011;6683;48.506;9.050;2023-11-18T09:23:54;1.87;;;1.77;;
13234;SDS011;6683;48.506;9.050;2023-11-18T09:26:57;2.97;;;2.20;;
13234;SDS011;6683;48.506;9.050;2023-11-18T09:29:59;2.43;;;2.23;;
13234;SDS011;6683;48.506;9.050;2023-11-18T09:33:06;3.10;;;2.20;;
13234;SDS011;6683;48.506;9.050;2023-11-18T09:36:15;2.07;;;1.87;;
13234;SDS011;6683;48.506;9.050;2023-11-18T09:39:18;2.20;;;2.00;;
13234;SDS011;6683;48.506;9.050;2023-11-18T09:42:29;2.87;;;2.17;;
13234;SDS011;6683;48.506;9.050;2023-11-18T09:45:32;3.63;;;2.80;;
13234;SDS011;6683;48.506;9.050;2023-11-18T09:48:34;3.20;;;2.70;;
13234;SDS011;6683;48.506;9.050;2023-11-18T09:51:42;2.30;;;2.10;;
13234;SDS011;6683;48.506;9.050;2023-11-18T09:54:49;2.20;;;2.00;;
13234;SDS011;6683;48.506;9.050;2023-11-18T09:58:03;2.00;;;1.80;;
13234;SDS011;6683;48.506;9.050;2023-11-18T10:01:13;2.43;;;1.67;;
13234;SDS011;6683;48.506;9.050;2023-11-18T10:04:19;2.23;;;2.03;;
13234;SDS011;6683;48.506;9.050;2023-11-18T10:07:23;1.97;;;1.77;;
13234;SDS011;6683;48.506;9.050;2023-11-18T10:10:28;3.07;;;1.87;;
13234;SDS011;6683;48.506;9.050;2023-11-18T10:13:36;2.20;;;1.40;;
13234;SDS011;6683;48.506;9.050;2023-11-18T10:16:40;2.13;;;1.60;;
13234;SDS011;6683;48.506;9.050;2023-11-18T10:19:49;2.40;;;2.13;;
13234;SDS011;6683;48.506;9.050;2023-11-18T10:23:06;2.03;;;1.90;;
13234;SDS011;6683;48.506;9.050;2023-11-18T10:26:10;2.50;;;2.30;;
13234;SDS011;6683;48.506;9.050;2023-11-18T10:29:13;2.73;;;2.40;;
13234;SDS011;6683;48.506;9.050;2023-11-18T10:32:18;2.60;;;2.40;;
13234;SDS011;6683;48.506;9.050;2023-11-18T10:35:22;3.20;;;2.40;;
13234;SDS011;6683;48.506;9.050;2023-11-18T10:38:29;2.20;;;2.00;;
13234;SDS011;6683;48.506;9.050;2023-11-18T10:41:32;2.10;;;1.90;;
13234;SDS011;6683;48.506;9.050;2023-11-18T10:44:36;2.30;;;2.10;;
13234;SDS011;6683;48.506;9.050;2023-11-18T10:47:42;2.30;;;2.10;;
13234;SDS011;6683;48.506;9.050;2023-11-18T10:50:47;2.97;;;2.53;;
13234;SDS011;6683;48.506;9.050;2023-11-18T10:53:52;2.07;;;1.90;;
13234;SDS011;6683;48.506;9.050;2023-11-18T10:56:58;2.27;;;2.07;;
13234;SDS011;6683;48.506;9.050;2023-11-18T11:00:07;1.93;;;1.73;;
13234;SDS011;6683;48.506;9.050;2023-11-18T11:03:14;2.03;;;1.80;;
13234;SDS011;6683;48.506;9.050;2023-11-18T11:06:18;4.13;;;1.70;;
13234;SDS011;6683;48.506;9.050;2023-11-18T11:09:25;2.20;;;1.93;;
13234;SDS011;6683;48.506;9.050;2023-11-18T11:12:28;2.10;;;2.00;;
13234;SDS011;6683;48.506;9.050;2023-11-18T11:15:36;3.23;;;1.97;;
13234;SDS011;6683;48.506;9.050;2023-11-18T11:18:47;2.87;;;2.57;;
13234;SDS011;6683;48.506;9.050;2023-11-18T11:22:00;2.30;;;2.10;;
13234;SDS011;6683;48.506;9.050;2023-11-18T11:25:09;2.30;;;2.10;;
13234;SDS011;6683;48.506;9.050;2023-11-18T11:28:22;4.30;;;3.10;;
13234;SDS011;6683;48.506;9.050;2023-11-18T11:31:30;3.37;;;2.40;;
13234;SDS011;6683;48.506;9.050;2023-11-18T11:34:39;4.23;;;3.30;;
13234;SDS011;6683;48.506;9.050;2023-11-18T11:37:45;3.00;;;2.47;;
13234;SDS011;6683;48.506;9.050;2023-11-18T11:40:50;4.00;;;2.20;;
13234;SDS011;6683;48.506;9.050;2023-11-18T11:43:55;2.63;;;2.03;;
13234;SDS011;6683;48.506;9.050;2023-11-18T11:46:58;1.80;;;1.70;;
13234;SDS011;6683;48.506;9.050;2023-11-18T11:50:04;2.10;;;1.80;;
13234;SDS011;6683;48.506;9.050;2023-11-18T11:53:20;2.93;;;1.73;;
13234;SDS011;6683;48.506;9.050;2023-11-18T11:56:39;2.43;;;1.63;;
13234;SDS011;6683;48.506;9.050;2023-11-18T11:59:55;1.70;;;1.60;;
13234;SDS011;6683;48.506;9.050;2023-11-18T12:02:58;1.63;;;1.53;;
13234;SDS011;6683;48.506;9.050;2023-11-18T12:06:04;1.70;;;1.60;;
13234;SDS011;6683;48.506;9.050;2023-11-18T12:09:08;2.43;;;2.23;;
13234;SDS011;6683;48.506;9.050;2023-11-18T12:12:21;2.57;;;1.50;;
13234;SDS011;6683;48.506;9.050;2023-11-18T12:26:37;2.70;;;1.33;;
13234;SDS011;6683;48.506;9.050;2023-11-18T12:29:43;2.17;;;1.60;;
13234;SDS011;6683;48.506;9.050;2023-11-18T12:32:57;1.70;;;1.60;;
13234;SDS011;6683;48.506;9.050;2023-11-18T12:43:42;2.17;;;1.90;;
13234;SDS011;6683;48.506;9.050;2023-11-18T12:46:51;2.43;;;1.70;;
13234;SDS011;6683;48.506;9.050;2023-11-18T12:49:55;2.17;;;1.80;;
13234;SDS011;6683;48.506;9.050;2023-11-18T12:52:57;2.00;;;1.90;;
13234;SDS011;6683;48.506;9.050;2023-11-18T12:55:59;3.80;;;1.70;;
13234;SDS011;6683;48.506;9.050;2023-11-18T12:59:03;2.10;;;1.90;;
13234;SDS011;6683;48.506;9.050;2023-11-18T13:02:08;2.40;;;1.80;;
13234;SDS011;6683;48.506;9.050;2023-11-18T13:05:13;1.70;;;1.60;;
13234;SDS011;6683;48.506;9.050;2023-11-18T13:08:15;2.43;;;1.70;;
13234;SDS011;6683;48.506;9.050;2023-11-18T13:11:19;1.93;;;1.57;;
13234;SDS011;6683;48.506;9.050;2023-11-18T13:14:24;1.77;;;1.67;;
13234;SDS011;6683;48.506;9.050;2023-11-18T13:17:28;2.50;;;2.03;;
13234;SDS011;6683;48.506;9.050;2023-11-18T13:20:30;1.97;;;1.80;;
13234;SDS011;6683;48.506;9.050;2023-11-18T13:23:35;2.27;;;2.07;;
13234;SDS011;6683;48.506;9.050;2023-11-18T13:26:37;2.63;;;2.17;;
13234;SDS011;6683;48.506;9.050;2023-11-18T13:29:42;2.10;;;1.90;;
13234;SDS011;6683;48.506;9.050;2023-11-18T13:32:50;2.73;;;2.27;;
13234;SDS011;6683;48.506;9.050;2023-11-18T13:35:52;2.50;;;2.00;;
13234;SDS011;6683;48.506;9.050;2023-11-18T13:38:54;3.00;;;2.27;;
13234;SDS011;6683;48.506;9.050;2023-11-18T13:41:57;3.00;;;2.20;;
13234;SDS011;6683;48.506;9.050;2023-11-18T13:44:59;2.43;;;2.23;;
13234;SDS011;6683;48.506;9.050;2023-11-18T13:48:09;2.60;;;2.07;;
13234;SDS011;6683;48.506;9.050;2023-11-18T13:51:13;3.80;;;2.73;;
13234;SDS011;6683;48.506;9.050;2023-11-18T13:54:16;2.50;;;2.23;;
13234;SDS011;6683;48.506;9.050;2023-11-18T13:57:19;2.47;;;2.20;;
13234;SDS011;6683;48.506;9.050;2023-11-18T14:00:22;3.77;;;2.40;;
13234;SDS011;6683;48.506;9.050;2023-11-18T14:03:28;3.17;;;2.33;;
13234;SDS011;6683;48.506;9.050;2023-11-18T14:06:32;3.73;;;2.43;;
13234;SDS011;6683;48.506;9.050;2023-11-18T14:09:34;3.07;;;2.37;;
13234;SDS011;6683;48.506;9.050;2023-11-18T14:12:40;2.70;;;2.33;;
13234;SDS011;6683;48.506;9.050;2023-11-18T14:15:56;2.37;;;1.93;;
13234;SDS011;6683;48.506;9.050;2023-11-18T14:19:01;2.50;;;2.03;;
13234;SDS011;6683;48.506;9.050;2023-11-18T14:22:03;2.73;;;2.33;;
13234;SDS011;6683;48.506;9.050;2023-11-18T14:25:07;3.20;;;2.60;;
13234;SDS011;6683;48.506;9.050;2023-11-18T14:28:09;2.80;;;2.30;;
13234;SDS011;6683;48.506;9.050;2023-11-18T14:31:11;4.83;;;2.80;;
13234;SDS011;6683;48.506;9.050;2023-11-18T14:34:15;4.07;;;2.70;;
13234;SDS011;6683;48.506;9.050;2023-11-18T14:37:18;3.73;;;2.30;;
13234;SDS011;6683;48.506;9.050;2023-11-18T14:40:20;2.87;;;2.57;;
13234;SDS011;6683;48.506;9.050;2023-11-18T14:43:24;4.20;;;2.30;;
13234;SDS011;6683;48.506;9.050;2023-11-18T14:46:26;3.80;;;2.37;;
13234;SDS011;6683;48.506;9.050;2023-11-18T14:49:29;2.43;;;2.10;;
13234;SDS011;6683;48.506;9.050;2023-11-18T14:52:31;2.20;;;2.00;;
13234;SDS011;6683;48.506;9.050;2023-11-18T14:55:34;2.30;;;2.07;;
13234;SDS011;6683;48.506;9.050;2023-11-18T14:58:37;2.63;;;2.10;;
13234;SDS011;6683;48.506;9.050;2023-11-18T15:01:39;2.43;;;1.83;;
13234;SDS011;6683;48.506;9.050;2023-11-18T15:04:45;5.43;;;2.60;;
13234;SDS011;6683;48.506;9.050;2023-11-18T15:07:49;3.50;;;1.80;;
13234;SDS011;6683;48.506;9.050;2023-11-18T15:10:54;5.60;;;2.23;;
13234;SDS011;6683;48.506;9.050;2023-11-18T15:13:58;3.83;;;2.13;;
13234;SDS011;6683;48.506;9.050;2023-11-18T15:17:03;7.27;;;2.93;;
13234;SDS011;6683;48.506;9.050;2023-11-18T15:20:09;5.00;;;1.90;;
13234;SDS011;6683;48.506;9.050;2023-11-18T15:23:13;6.67;;;2.33;;
13234;SDS011;6683;48.506;9.050;2023-11-18T15:26:16;5.13;;;2.07;;
13234;SDS011;6683;48.506;9.050;2023-11-18T15:29:19;6.77;;;2.40;;
13234;SDS011;6683;48.506;9.050;2023-11-18T15:32:21;2.27;;;1.20;;
13234;SDS011;6683;48.506;9.050;2023-11-18T15:35:28;2.63;;;1.10;;
13234;SDS011;6683;48.506;9.050;2023-11-18T15:38:30;2.33;;;1.53;;
13234;SDS011;6683;48.506;9.050;2023-11-18T15:41:34;4.50;;;2.13;;
13234;SDS011;6683;48.506;9.050;2023-11-18T15:44:36;5.07;;;2.57;;
13234;SDS011;6683;48.506;9.050;2023-11-18T15:47:39;4.60;;;2.30;;
13234;SDS011;6683;48.506;9.050;2023-11-18T15:50:44;2.03;;;1.10;;
13234;SDS011;6683;48.506;9.050;2023-11-18T15:53:47;1.53;;;1.10;;
13234;SDS011;6683;48.506;9.050;2023-11-18T15:56:49;1.97;;;1.13;;
13234;SDS011;6683;48.506;9.050;2023-11-18T15:59:51;1.60;;;1.00;;
13234;SDS011;6683;48.506;9.050;2023-11-18T16:02:54;1.63;;;1.00;;
13234;SDS011;6683;48.506;9.050;2023-11-18T16:05:59;0.87;;;0.80;;
13234;SDS011;6683;48.506;9.050;2023-11-18T16:09:01;1.37;;;1.07;;
13234;SDS011;6683;48.506;9.050;2023-11-18T16:12:04;0.93;;;0.90;;
13234;SDS011;6683;48.506;9.050;2023-11-18T16:15:07;1.10;;;0.80;;
13234;SDS011;6683;48.506;9.050;2023-11-18T16:18:11;0.77;;;0.77;;
13234;SDS011;6683;48.506;9.050;2023-11-18T16:21:14;2.60;;;1.10;;
13234;SDS011;6683;48.506;9.050;2023-11-18T16:24:17;1.20;;;0.90;;
13234;SDS011;6683;48.506;9.050;2023-11-18T16:27:20;1.10;;;1.00;;
13234;SDS011;6683;48.506;9.050;2023-11-18T16:30:22;1.97;;;1.17;;
13234;SDS011;6683;48.506;9.050;2023-11-18T16:33:25;1.27;;;1.00;;
13234;SDS011;6683;48.506;9.050;2023-11-18T16:36:28;4.73;;;1.20;;
13234;SDS011;6683;48.506;9.050;2023-11-18T16:39:31;1.17;;;0.90;;
13234;SDS011;6683;48.506;9.050;2023-11-18T16:42:34;2.17;;;1.30;;
13234;SDS011;6683;48.506;9.050;2023-11-18T16:45:39;2.03;;;1.60;;
13234;SDS011;6683;48.506;9.050;2023-11-18T16:48:58;2.37;;;1.23;;
13234;SDS011;6683;48.506;9.050;2023-11-18T16:52:02;2.00;;;1.80;;
13234;SDS011;6683;48.506;9.050;2023-11-18T16:55:05;1.90;;;1.73;;
13234;SDS011;6683;48.506;9.050;2023-11-18T16:58:08;2.10;;;1.90;;
13234;SDS011;6683;48.506;9.050;2023-11-18T17:01:11;2.07;;;1.87;;
13234;SDS011;6683;48.506;9.050;2023-11-18T17:04:16;2.97;;;2.00;;
13234;SDS011;6683;48.506;9.050;2023-11-18T17:07:20;2.20;;;1.70;;
13234;SDS011;6683;48.506;9.050;2023-11-18T17:10:23;1.80;;;1.70;;
13234;SDS011;6683;48.506;9.050;2023-11-18T17:13:25;2.50;;;2.00;;
13234;SDS011;6683;48.506;9.050;2023-11-18T17:16:30;1.60;;;1.27;;
13234;SDS011;6683;48.506;9.050;2023-11-18T17:19:32;1.93;;;1.53;;
13234;SDS011;6683;48.506;9.050;2023-11-18T17:22:36;1.73;;;1.33;;
13234;SDS011;6683;48.506;9.050;2023-11-18T17:25:39;1.53;;;1.10;;
13234;SDS011;6683;48.506;9.050;2023-11-18T17:28:42;2.33;;;1.13;;
13234;SDS011;6683;48.506;9.050;2023-11-18T17:31:44;1.13;;;1.03;;
13234;SDS011;6683;48.506;9.050;2023-11-18T17:34:47;1.93;;;0.90;;
13234;SDS011;6683;48.506;9.050;2023-11-18T17:37:50;1.20;;;0.80;;
13234;SDS011;6683;48.506;9.050;2023-11-18T17:40:52;1.30;;;0.87;;
13234;SDS011;6683;48.506;9.050;2023-11-18T17:43:55;1.83;;;1.40;;
13234;SDS011;6683;48.506;9.050;2023-11-18T17:46:57;1.20;;;1.10;;
13234;SDS011;6683;48.506;9.050;2023-11-18T17:50:01;1.20;;;1.00;;
13234;SDS011;6683;48.506;9.050;2023-11-18T17:53:09;1.60;;;1.07;;
13234;SDS011;6683;48.506;9.050;2023-11-18T17:56:11;1.30;;;1.20;;
13234;SDS011;6683;48.506;9.050;2023-11-18T17:59:14;1.10;;;1.00;;
13234;SDS011;6683;48.506;9.050;2023-11-18T18:02:19;1.17;;;0.87;;
13234;SDS011;6683;48.506;9.050;2023-11-18T18:05:21;1.10;;;0.87;;
13234;SDS011;6683;48.506;9.050;2023-11-18T18:08:26;0.70;;;0.70;;
13234;SDS011;6683;48.506;9.050;2023-11-18T18:11:28;1.13;;;0.97;;
13234;SDS011;6683;48.506;9.050;2023-11-18T18:14:30;1.83;;;1.33;;
13234;SDS011;6683;48.506;9.050;2023-11-18T18:17:32;3.03;;;1.57;;
13234;SDS011;6683;48.506;9.050;2023-11-18T18:20:34;2.67;;;1.57;;
13234;SDS011;6683;48.506;9.050;2023-11-18T18:23:39;2.97;;;1.50;;
13234;SDS011;6683;48.506;9.050;2023-11-18T18:26:41;2.50;;;1.70;;
13234;SDS011;6683;48.506;9.050;2023-11-18T18:29:44;2.50;;;1.20;;
13234;SDS011;6683;48.506;9.050;2023-11-18T18:32:46;2.40;;;0.90;;
13234;SDS011;6683;48.506;9.050;2023-11-18T18:35:49;0.93;;;0.80;;
13234;SDS011;6683;48.506;9.050;2023-11-18T18:38:53;1.07;;;0.90;;
13234;SDS011;6683;48.506;9.050;2023-11-18T18:41:55;1.57;;;1.07;;
13234;SDS011;6683;48.506;9.050;2023-11-18T18:44:57;3.37;;;1.90;;
13234;SDS011;6683;48.506;9.050;2023-11-18T18:48:00;3.00;;;1.40;;
13234;SDS011;6683;48.506;9.050;2023-11-18T18:51:02;2.40;;;1.10;;
13234;SDS011;6683;48.506;9.050;2023-11-18T18:54:07;1.77;;;1.20;;
13234;SDS011;6683;48.506;9.050;2023-11-18T18:57:11;0.80;;;0.77;;
13234;SDS011;6683;48.506;9.050;2023-11-18T19:00:13;1.37;;;0.90;;
13234;SDS011;6683;48.506;9.050;2023-11-18T19:03:17;1.20;;;0.83;;